• Join FlightAware (Why Join?)
  • Login
  • US Flag 
Gobble Gobble! 
05:17PM EST


 

Airport Tracker/Info


-or-


 

Live Flight TrackerFlight Track Log ✈ SWA685 ✈ 29-Jun-2013 ✈ KSTL - KMCO

Flight Track Log - Related Links

Times and Time Zones

All times are in EDT time to prevent confusion due to time zone crossing. See the SWA685 flight status page for this flight to view local times or setup timezone preferences in your user account.

Time Position Orientation Groundspeed Altitude Reporting Facility
EDT Latitude Longitude Course Direction KTS MPH feet Rate Location/Type
07:09PM 38.7667 -90.4167 196° South 185 213 4,000  Level Gateway (St. Louis) TRACON
07:10PM 38.7489 -90.4869 252° West 234 269 7,800 3,060 Climbing Kansas City Center
07:11PM 38.6672 -90.5003 187° South 297 342 10,500 2,760 Climbing Kansas City Center
07:12PM 38.5742 -90.5275 193° South 339 390 13,600 2,220 Climbing Kansas City Center
07:13PM 38.4608 -90.5633 194° South 367 422 15,100 1,980 Climbing Kansas City Center
07:14PM 38.1185 -90.5493 196° South  Level FlightAware Approximate
07:14PM 38.3728 -90.5958 196° South 376 433 17,700  Level Kansas City Center
07:15PM 38.2411 -90.6286 191° South 396 456 20,900 2,580 Climbing Kansas City Center
07:16PM 38.1236 -90.6556 190° South 421 484 23,000 1,320 Climbing Kansas City Center
07:17PM 38.0047 -90.6833 190° South 432 497 23,700 1,380 Climbing Kansas City Center
07:18PM 37.8886 -90.7319 198° South 441 507 25,900 2,160 Climbing Kansas City Center
07:19PM 37.7711 -90.7864 200° South 449 517 28,200 1,980 Climbing Kansas City Center
07:20PM 37.6531 -90.8475 202° Southwest 455 524 30,000 1,680 Climbing Kansas City Center
07:21PM 37.5081 -90.9244 203° Southwest 467 537 31,700 960 Climbing Kansas City Center
07:22PM 37.3828 -90.9900 203° Southwest 474 545 32,000 120 Climbing Kansas City Center
07:23PM 37.2558 -91.0567 203° Southwest 484 557 32,000  Level Kansas City Center
07:24PM 37.1244 -91.1028 196° South 485 558 32,000 60 Level Kansas City Center
07:25PM 36.9889 -91.0850 174° South 490 564 32,200 660 Climbing Kansas City Center
07:26PM 36.8444 -91.0700 175° South 487 560 33,300 1,620 Climbing Memphis Center
07:27PM 36.7111 -91.0481 172° South 498 573 35,400 1,980 Climbing Memphis Center
07:28PM 36.5778 -91.0314 174° South 498 573 37,300 1,560 Climbing Memphis Center
07:29PM 36.4511 -90.9917 166° South 487 560 38,600 840 Climbing Memphis Center
07:30PM 36.3578 -90.8619 132° Southeast 458 527 39,000 180 Climbing Memphis Center
07:31PM 36.2664 -90.7250 130° Southeast 479 551 39,000  Level Memphis Center
07:32PM 36.1750 -90.5858 129° Southeast 499 574 39,000  Level Memphis Center
07:33PM 36.0836 -90.4494 130° Southeast 514 592 39,000  Level Memphis Center
07:34PM 35.9939 -90.3158 130° Southeast 514 592 39,000  Level Memphis Center
07:35PM 35.9083 -90.1828 128° Southeast 508 585 39,000  Level Memphis Center
07:36PM 35.8161 -90.0497 130° Southeast 507 583 39,000  Level Memphis Center
07:37PM 35.7325 -89.9247 129° Southeast 501 577 39,000  Level Memphis Center
07:38PM 35.6547 -89.8000 127° Southeast 484 557 39,000  Level Memphis Center
07:39PM 35.5708 -89.6756 130° Southeast 466 536 39,000  Level Memphis Center
07:40PM 35.4886 -89.5539 130° Southeast 471 542 39,000  Level Memphis Center
07:41PM 35.4044 -89.4297 130° Southeast 471 542 39,000  Level Memphis Center
07:42PM 35.3200 -89.3086 130° Southeast 471 542 39,000 240 Level Memphis Center
07:43PM 35.2353 -89.1850 130° Southeast 471 542 39,500 600 Climbing Memphis Center
07:44PM 35.1572 -89.0744 131° Southeast 477 549 40,200 660 Climbing Memphis Center
07:45PM 35.0703 -88.9489 130° Southeast 482 555 40,900 360 Climbing Memphis Center
07:46PM 34.9811 -88.8236 131° Southeast 482 555 41,000  Climbing Memphis Center
07:47PM 34.8961 -88.7011 130° Southeast 477 549 41,000  Level Memphis Center
07:48PM 34.8089 -88.5789 131° Southeast 477 549 41,000  Level Memphis Center
07:49PM 34.7236 -88.4644 132° Southeast 477 549 41,000  Level Memphis Center
07:50PM 34.6383 -88.3453 131° Southeast 472 543 41,000  Level Memphis Center
07:51PM 34.5508 -88.2239 131° Southeast 472 543 41,000  Level Memphis Center
07:52PM 34.4522 -88.0803 130° Southeast 491 565 41,000  Level Memphis Center
07:54PM 34.2922 -87.8631 132° Southeast 480 552 41,000  Level Atlanta Center
07:55PM 34.2061 -87.7436 131° Southeast 480 552 41,000  Level Atlanta Center
07:56PM 34.1158 -87.6217 132° Southeast 480 552 41,000  Level Atlanta Center
07:57PM 34.0294 -87.4978 130° Southeast 480 552 41,000  Level Atlanta Center
07:58PM 33.9431 -87.3792 131° Southeast 475 547 41,000  Level Atlanta Center
07:59PM 33.8586 -87.2608 131° Southeast 475 547 41,000  Level Atlanta Center
08:00PM 33.7697 -87.1400 131° Southeast 475 547 41,000  Level Atlanta Center
08:01PM 33.6831 -87.0219 131° Southeast 475 547 41,000  Level Atlanta Center
08:02PM 33.5981 -86.9044 131° Southeast 475 547 41,000  Level Atlanta Center
08:03PM 33.5111 -86.7869 132° Southeast 475 547 41,000  Level Atlanta Center
08:04PM 33.4258 -86.6722 132° Southeast 475 547 41,000  Level Atlanta Center
08:05PM 33.3406 -86.5578 132° Southeast 475 547 41,000  Level Atlanta Center
08:06PM 33.2514 -86.4283 129° Southeast 459 528 41,000  Level Atlanta Center
08:07PM 33.1956 -86.2853 115° Southeast 470 541 41,000  Level Atlanta Center
08:08PM 33.1461 -86.1353 111° Southeast 470 541 41,000  Level Atlanta Center
08:09PM 33.0964 -85.9853 112° Southeast 476 548 41,000  Level Atlanta Center
08:10PM 33.0422 -85.8378 114° Southeast 481 554 41,000  Level Atlanta Center
08:11PM 32.9817 -85.6906 116° Southeast 481 554 41,000  Level Atlanta Center
08:12PM 32.9189 -85.5483 118° Southeast 481 554 41,000  Level Atlanta Center
08:13PM 32.8514 -85.4111 120° Southeast 481 554 41,000  Level Atlanta Center
08:14PM 32.7883 -85.2742 119° Southeast 481 554 41,000  Level Atlanta Center
08:15PM 32.7186 -85.1450 123° Southeast 481 554 41,000  Level Atlanta Center
08:16PM 32.6256 -85.0253 133° Southeast 472 543 41,000  Level Atlanta Center
08:17PM 32.5325 -84.9331 140° Southeast 462 532 41,000  Level Atlanta Center
08:19PM 32.3942 -84.8092 143° Southeast 456 525 41,000  Level Jacksonville Center
08:20PM 32.3017 -84.7189 140° Southeast 444 511 41,000  Level Jacksonville Center
08:21PM 32.2153 -84.6164 135° Southeast 438 504 41,000  Level Jacksonville Center
08:22PM 32.1225 -84.5264 141° Southeast 438 504 41,000  Level Jacksonville Center
08:23PM 32.0256 -84.4364 142° Southeast 438 504 41,000  Level Jacksonville Center
08:24PM 31.9286 -84.3442 141° Southeast 443 510 41,000  Level Jacksonville Center
08:25PM 31.8314 -84.2547 142° Southeast 448 516 41,000  Level Jacksonville Center
08:26PM 31.7364 -84.1603 140° Southeast 448 516 41,000  Level Jacksonville Center
08:27PM 31.6392 -84.0639 140° Southeast 448 516 41,000  Level Jacksonville Center
08:28PM 31.5419 -83.9700 141° Southeast 448 516 41,000  Level Jacksonville Center
08:29PM 31.4319 -83.8617 140° Southeast 453 521 41,000  Level Jacksonville Center
08:30PM 31.3367 -83.7658 139° Southeast 460 529 41,000  Level Jacksonville Center
08:31PM 31.2414 -83.6703 139° Southeast 455 524 41,000  Level Jacksonville Center
08:32PM 31.1436 -83.5772 141° Southeast 455 524 41,000 -720 Level Jacksonville Center
08:33PM 31.0481 -83.4842 140° Southeast 455 524 39,600 -1,980 Descending Jacksonville Center
08:34PM 30.9525 -83.3892 140° Southeast 450 518 37,100 -2,700 Descending Jacksonville Center
08:35PM 30.8589 -83.2992 140° Southeast 450 518 34,300 -2,820 Descending Jacksonville Center
08:36PM 30.7714 -83.2117 139° Southeast 450 518 31,500 -3,000 Descending Jacksonville Center
08:37PM 30.6733 -83.1172 140° Southeast 455 524 28,300 -2,280 Descending Jacksonville Center
08:38PM 30.5756 -83.0228 140° Southeast 455 524 27,000 -660 Descending Jacksonville Center
08:39PM 30.4753 -82.9286 141° Southeast 461 531 27,000  Level Jacksonville Center
08:40PM 30.3750 -82.8300 140° Southeast 467 537 27,000  Level Jacksonville Center
08:41PM 30.2728 -82.7361 142° Southeast 472 543 27,000  Level Jacksonville Center
08:42PM 30.1597 -82.6308 141° Southeast 472 543 27,000  Level Jacksonville Center
08:43PM 30.0572 -82.5350 141° Southeast 472 543 27,000  Level Jacksonville Center
08:44PM 29.9525 -82.4419 142° Southeast 467 537 27,000  Level Jacksonville Center
08:45PM 29.8333 -82.3850 157° South 467 537 27,000 -540 Level Jacksonville Center
08:46PM 29.7142 -82.3283 158° South 467 537 26,000 -900 Descending Jacksonville Center
08:47PM 29.5947 -82.2717 158° South 467 537 25,300 -1,020 Descending Jacksonville Center
08:48PM 29.4756 -82.2150 158° South 467 537 24,000 -2,100 Descending Jacksonville Center
08:49PM 29.3647 -82.1611 157° South 452 520 21,200 -2,760 Descending Jacksonville Center
08:50PM 29.2578 -82.1094 157° South 434 499 18,500 -2,700 Descending Jacksonville Center
08:51PM 29.1531 -82.0603 158° South 422 486 15,800 -2,700 Descending Jacksonville Center
08:52PM 29.0528 -82.0136 158° South 410 472 13,200 -2,160 Descending Jacksonville Center
08:53PM 28.9564 -81.9669 157° South 391 450 11,500 -1,200 Descending Jacksonville Center
08:54PM 28.8831 -81.9300 156° South 360 414 10,900 -240 Descending Jacksonville Center
08:55PM 28.8500 -81.8333 111° Southeast 308 354 11,100 -660 Climbing Orlando TRACON
08:56PM 28.8333 -81.7333 101° East 307 353 9,600 -1,500 Descending Orlando TRACON
08:57PM 28.8000 -81.6333 111° Southeast 297 342 8,000 -1,440 Descending Orlando TRACON
08:58PM 28.7833 -81.5500 103° East 290 334 6,800 -1,080 Descending Orlando TRACON
08:59PM 28.7500 -81.4667 115° Southeast 274 315 6,000 -840 Descending Orlando TRACON
09:00PM 28.7333 -81.4000 106° East 239 275 5,200 -900 Descending Orlando TRACON
09:01PM 28.6833 -81.3500 139° Southeast 227 261 4,200 -840 Descending Orlando TRACON
09:02PM 28.6333 -81.3167 150° Southeast 227 261 3,600 -780 Descending Orlando TRACON
09:03PM 28.5833 -81.2833 150° Southeast 207 238 2,800 -900 Descending Orlando TRACON
09:04PM 28.5333 -81.2833 180° South 175 201 1,900 -840 Descending Orlando TRACON
09:05PM 28.5000 -81.3000 204° Southwest 135 155 1,200 -660 Descending Orlando TRACON
09:06PM 28.4500 -81.3000 180° South 128 147 600 -600 Descending Orlando TRACON
09:08PM 28.4294 -81.3090 24° Northeast  Level Estimated
09:15PM 28.4294 -81.3090 24° Northeast  Level Estimated